Terminal Aerodrome Forecast
Issued by NWS

Home | Current Version | Previous Version | Text Only | Print | Product List | Glossary On
Versions: 1 2 3 4 5 6 7 8 9 10 11 12 13 14 15
000
FTUS43 KAPX 231138
TAFTVC
TAF
KTVC 231138Z 2312/2412 00000KT 2SM BR OVC006 WS014/21030KT
     FM231400 16005KT 5SM -RA BR OVC009 WS015/20030KT
     FM240000 12005KT 3SM RA BR OVC006 WS015/18032KT=

USA.gov is the U.S. government's official web portal to all federal, state and local government web resources and services.